This is the latest recevied weather packets stored in our database for station/object WE8L. If no packets are shown the sender has not sent any weather packets the latest 10 day(s).
| Time | Temp. | Humidity | Pressure | Rain* | Wind** | Luminosity | Snow |
|---|---|---|---|---|---|---|---|
| 1777923272 | 21.67° C | 56% | 1010.4 hPa | 0 mm | - | 211 W/m² | - |
| 1777922971 | 21.67° C | 57% | 1010.6 hPa | 0 mm | - | 197 W/m² | - |
| 1777922667 | 21.11° C | 58% | 1010.8 hPa | 0 mm | - | 212 W/m² | - |
| 1777922366 | 20.56° C | 61% | 1010.8 hPa | 0 mm | - | 163 W/m² | - |
| 1777922064 | 20.56° C | 61% | 1010.9 hPa | 0 mm | - | 93 W/m² | - |
| 1777921759 | 20.56° C | 64% | 1011.1 hPa | 0 mm | - | 95 W/m² | - |
| 1777921455 | 20° C | 65% | 1011.5 hPa | 0 mm | - | 72 W/m² | - |
| 1777921152 | 20° C | 65% | 1011.2 hPa | 0 mm | - | 107 W/m² | - |
| 1777920849 | 20° C | 64% | 1011 hPa | 0 mm | - | 65 W/m² | - |
| 1777920545 | 20° C | 64% | 1011.2 hPa | 0 mm | - | 42 W/m² | - |
| 1777920241 | 20° C | 61% | 1011.6 hPa | 0 mm | - | 19 W/m² | - |
| 1777919937 | 20° C | 60% | 1011.5 hPa | 0 mm | - | 28 W/m² | - |
| 1777919634 | 20° C | 60% | 1011.3 hPa | 0 mm | - | 61 W/m² | - |
| 1777919332 | 20.56° C | 59% | 1011.3 hPa | 0 mm | - | 60 W/m² | - |
| 1777919029 | 20.56° C | 58% | 1011.2 hPa | 0 mm | - | 76 W/m² | - |
| 1777918725 | 20.56° C | 58% | 1010.9 hPa | 0 mm | - | 65 W/m² | - |
| 1777918423 | 20.56° C | 57% | 1011.3 hPa | 0 mm | - | 79 W/m² | - |
| 1777918122 | 21.11° C | 56% | 1010.7 hPa | 0 mm | - | 127 W/m² | - |
| 1777917820 | 21.11° C | 56% | 1010.8 hPa | 0 mm | - | 166 W/m² | - |
| 1777917518 | 21.67° C | 56% | 1010.7 hPa | 0 mm | - | 109 W/m² | - |
| 1777917214 | 22.22° C | 55% | 1010.7 hPa | 0 mm | - | 167 W/m² | - |
| 1777916913 | 21.67° C | 58% | 1010.3 hPa | 0 mm | - | 192 W/m² | - |
| 1777916610 | 21.67° C | 55% | 1010.4 hPa | 0 mm | - | 221 W/m² | - |
| 1777916307 | 21.67° C | 56% | 1010.5 hPa | 0 mm | - | 242 W/m² | - |
| 1777916003 | 21.67° C | 58% | 1010.5 hPa | 0 mm | - | 264 W/m² | - |
* Rain latest hour (hover to see other rain measurements)
** Current wind speed in m/s (hover to see current wind gust speed)